createdAt,value
2019-02-06T00:00:29.890Z,1022.64
2019-02-06T00:01:29.815Z,1022.57
2019-02-06T00:02:29.727Z,1022.57
2019-02-06T00:03:29.641Z,1022.56
2019-02-06T00:04:29.553Z,1022.60
2019-02-06T00:05:29.465Z,1022.60
2019-02-06T00:06:29.385Z,1022.64
2019-02-06T00:07:29.293Z,1022.66
2019-02-06T00:08:29.215Z,1022.66
2019-02-06T00:09:29.130Z,1022.65
2019-02-06T00:10:29.042Z,1022.69
2019-02-06T00:11:28.955Z,1022.69
2019-02-06T00:12:28.893Z,1022.67
2019-02-06T00:13:28.781Z,1022.73
2019-02-06T00:14:28.708Z,1022.74
2019-02-06T00:15:28.612Z,1022.73
2019-02-06T00:16:28.545Z,1022.72
2019-02-06T00:17:28.464Z,1022.73
2019-02-06T00:18:28.356Z,1022.71
2019-02-06T00:19:28.268Z,1022.74
2019-02-06T00:20:28.184Z,1022.76
2019-02-06T00:21:28.092Z,1022.70
2019-02-06T00:22:28.005Z,1022.73
2019-02-06T00:23:27.919Z,1022.71
2019-02-06T00:24:28.105Z,1022.72
2019-02-06T00:25:27.760Z,1022.70
2019-02-06T00:26:27.670Z,1022.69
2019-02-06T00:27:27.583Z,1022.67
2019-02-06T00:28:27.492Z,1022.68
2019-02-06T00:29:27.406Z,1022.66
2019-02-06T00:30:27.340Z,1022.71
2019-02-06T00:31:27.243Z,1022.68
2019-02-06T00:32:27.157Z,1022.71
2019-02-06T00:33:27.067Z,1022.72
2019-02-06T00:34:26.981Z,1022.72
2019-02-06T00:35:26.894Z,1022.69
2019-02-06T00:36:26.808Z,1022.72
2019-02-06T00:37:26.720Z,1022.71
2019-02-06T00:38:26.647Z,1022.68
2019-02-06T00:39:26.806Z,1022.69
2019-02-06T00:40:26.469Z,1022.64
2019-02-06T00:41:26.382Z,1022.67
2019-02-06T00:42:26.294Z,1022.64
2019-02-06T00:43:26.207Z,1022.65
2019-02-06T00:44:26.119Z,1022.67
2019-02-06T00:45:26.160Z,1022.69
2019-02-06T00:46:26.018Z,1022.64
2019-02-06T00:47:25.871Z,1022.65
2019-02-06T00:48:25.784Z,1022.64
2019-02-06T00:49:25.697Z,1022.67
2019-02-06T00:50:25.607Z,1022.67
2019-02-06T00:51:25.520Z,1022.65
2019-02-06T00:52:25.434Z,1022.65
2019-02-06T00:53:25.345Z,1022.63
2019-02-06T00:54:25.268Z,1022.64
2019-02-06T00:55:25.183Z,1022.64
2019-02-06T00:56:25.095Z,1022.61
2019-02-06T00:57:25.009Z,1022.62
2019-02-06T00:58:24.934Z,1022.62
2019-02-06T00:59:24.835Z,1022.62
2019-02-06T01:00:24.746Z,1022.59
2019-02-06T01:01:24.666Z,1022.62
2019-02-06T01:02:24.571Z,1022.58
2019-02-06T01:03:24.496Z,1022.63
2019-02-06T01:04:24.409Z,1022.62
2019-02-06T01:05:24.321Z,1022.60
2019-02-06T01:06:24.234Z,1022.59
2019-02-06T01:07:24.146Z,1022.64
2019-02-06T01:08:24.060Z,1022.67
2019-02-06T01:09:24.274Z,1022.67
2019-02-06T01:10:23.884Z,1022.66
2019-02-06T01:11:23.810Z,1022.64
2019-02-06T01:12:23.725Z,1022.68
2019-02-06T01:13:23.727Z,1022.68
2019-02-06T01:14:23.796Z,1022.67
2019-02-06T01:15:23.460Z,1022.68
2019-02-06T01:16:23.374Z,1022.67
2019-02-06T01:17:25.866Z,1022.68
2019-02-06T01:18:23.197Z,1022.69
2019-02-06T01:19:23.122Z,1022.70
2019-02-06T01:20:23.037Z,1022.67
2019-02-06T01:21:22.960Z,1022.70
2019-02-06T01:22:22.862Z,1022.67
2019-02-06T01:23:22.772Z,1022.67
2019-02-06T01:24:22.937Z,1022.64
2019-02-06T01:25:22.598Z,1022.63
2019-02-06T01:26:22.523Z,1022.63
2019-02-06T01:27:22.423Z,1022.63
2019-02-06T01:28:22.338Z,1022.65
2019-02-06T01:29:22.262Z,1022.70
2019-02-06T01:30:22.174Z,1022.66
2019-02-06T01:31:22.089Z,1022.67
2019-02-06T01:32:21.999Z,1022.71
2019-02-06T01:33:21.912Z,1022.63
2019-02-06T01:34:21.824Z,1022.66
2019-02-06T01:35:21.737Z,1022.65
2019-02-06T01:36:21.662Z,1022.67
2019-02-06T01:37:21.562Z,1022.66
2019-02-06T01:38:21.476Z,1022.73
2019-02-06T01:39:21.400Z,1022.69
2019-02-06T01:40:21.312Z,1022.67
2019-02-06T01:41:21.225Z,1022.67
2019-02-06T01:42:21.137Z,1022.69
2019-02-06T01:43:21.052Z,1022.73
2019-02-06T01:44:20.966Z,1022.75
2019-02-06T01:45:20.876Z,1022.76
2019-02-06T01:46:20.788Z,1022.74
2019-02-06T01:47:20.701Z,1022.75
2019-02-06T01:48:20.628Z,1022.71
2019-02-06T01:49:20.539Z,1022.71
2019-02-06T01:50:20.464Z,1022.73
2019-02-06T01:51:20.364Z,1022.70
2019-02-06T01:52:20.275Z,1022.76
2019-02-06T01:53:20.191Z,1022.71
2019-02-06T01:54:20.101Z,1022.72
2019-02-06T01:55:20.014Z,1022.69
2019-02-06T01:56:19.931Z,1022.72
2019-02-06T01:57:19.851Z,1022.65
2019-02-06T01:58:19.765Z,1022.72
2019-02-06T01:59:19.677Z,1022.68
2019-02-06T02:00:19.591Z,1022.72
2019-02-06T02:01:19.515Z,1022.74
2019-02-06T02:02:19.415Z,1022.72
2019-02-06T02:03:19.327Z,1022.70
2019-02-06T02:04:19.241Z,1022.68
2019-02-06T02:05:19.153Z,1022.72
2019-02-06T02:06:19.077Z,1022.72
2019-02-06T02:07:18.992Z,1022.73
2019-02-06T02:08:18.904Z,1022.67
2019-02-06T02:09:18.816Z,1022.68
2019-02-06T02:10:18.729Z,1022.70
2019-02-06T02:11:18.641Z,1022.69
2019-02-06T02:12:18.556Z,1022.72
2019-02-06T02:13:18.467Z,1022.66
2019-02-06T02:14:18.379Z,1022.64
2019-02-06T02:15:18.303Z,1022.67
2019-02-06T02:16:18.216Z,1022.64
2019-02-06T02:17:18.141Z,1022.68
2019-02-06T02:18:18.042Z,1022.62
2019-02-06T02:19:18.204Z,1022.54
2019-02-06T02:20:17.986Z,1022.63
2019-02-06T02:21:17.779Z,1022.67
2019-02-06T02:22:17.694Z,1022.63
2019-02-06T02:23:17.604Z,1022.67
2019-02-06T02:24:17.531Z,1022.66
2019-02-06T02:25:17.442Z,1022.61
2019-02-06T02:26:17.354Z,1022.69
2019-02-06T02:27:17.270Z,1022.69
2019-02-06T02:28:17.193Z,1022.75
2019-02-06T02:29:17.093Z,1022.75
2019-02-06T02:30:17.013Z,1022.71
2019-02-06T02:31:16.922Z,1022.75
2019-02-06T02:32:16.831Z,1022.72
2019-02-06T02:33:16.755Z,1022.70
2019-02-06T02:34:16.669Z,1022.68
2019-02-06T02:35:16.580Z,1022.69
2019-02-06T02:36:16.624Z,1022.68
2019-02-06T02:37:16.407Z,1022.69
2019-02-06T02:38:16.319Z,1022.66
2019-02-06T02:39:16.245Z,1022.68
2019-02-06T02:40:16.144Z,1022.73
2019-02-06T02:41:16.058Z,1022.73
2019-02-06T02:42:15.982Z,1022.72
2019-02-06T02:43:15.894Z,1022.74
2019-02-06T02:44:16.056Z,1022.72
2019-02-06T02:45:15.721Z,1022.75
2019-02-06T02:46:15.633Z,1022.72
2019-02-06T02:47:15.545Z,1022.72
2019-02-06T02:48:15.457Z,1022.68
2019-02-06T02:49:15.381Z,1022.65
2019-02-06T02:50:15.282Z,1022.64
2019-02-06T02:51:15.208Z,1022.62
2019-02-06T02:52:15.124Z,1022.60
2019-02-06T02:53:15.031Z,1022.65
2019-02-06T02:54:14.946Z,1022.63
2019-02-06T02:55:14.862Z,1022.63
2019-02-06T02:56:14.773Z,1022.65
2019-02-06T02:57:14.683Z,1022.61
2019-02-06T02:58:14.709Z,1022.61
2019-02-06T02:59:14.824Z,1022.57
2019-02-06T03:00:14.432Z,1022.60
2019-02-06T03:01:14.346Z,1022.62
2019-02-06T03:02:14.258Z,1022.64
2019-02-06T03:03:14.172Z,1022.62
2019-02-06T03:04:14.083Z,1022.65
2019-02-06T03:05:13.997Z,1022.61
2019-02-06T03:06:13.910Z,1022.62
2019-02-06T03:07:13.834Z,1022.61
2019-02-06T03:08:13.747Z,1022.60
2019-02-06T03:09:13.660Z,1022.61
2019-02-06T03:10:13.572Z,1022.63
2019-02-06T03:11:13.486Z,1022.60
2019-02-06T03:12:13.397Z,1022.59
2019-02-06T03:13:13.310Z,1022.61
2019-02-06T03:14:13.229Z,1022.60
2019-02-06T03:15:13.151Z,1022.61
2019-02-06T03:16:13.059Z,1022.58
2019-02-06T03:17:12.973Z,1022.57
2019-02-06T03:18:12.887Z,1022.53
2019-02-06T03:19:12.798Z,1022.52
2019-02-06T03:20:12.711Z,1022.47
2019-02-06T03:21:12.635Z,1022.49
2019-02-06T03:22:12.550Z,1022.44
2019-02-06T03:23:12.460Z,1022.45
2019-02-06T03:24:12.374Z,1022.49
2019-02-06T03:25:12.298Z,1022.48
2019-02-06T03:26:12.199Z,1022.45
2019-02-06T03:27:12.123Z,1022.45
2019-02-06T03:28:12.033Z,1022.50
2019-02-06T03:29:11.950Z,1022.44
2019-02-06T03:30:11.862Z,1022.44
2019-02-06T03:31:11.778Z,1022.44
2019-02-06T03:32:11.704Z,1022.46
2019-02-06T03:33:11.602Z,1022.43
2019-02-06T03:34:11.511Z,1022.41
2019-02-06T03:35:11.425Z,1022.43
2019-02-06T03:36:11.338Z,1022.41
2019-02-06T03:37:11.262Z,1022.37
2019-02-06T03:38:11.175Z,1022.38
2019-02-06T03:39:11.088Z,1022.42
2019-02-06T03:40:11.004Z,1022.39
2019-02-06T03:41:10.912Z,1022.42
2019-02-06T03:42:10.826Z,1022.39
2019-02-06T03:43:10.758Z,1022.37
2019-02-06T03:44:10.912Z,1022.37
2019-02-06T03:45:10.614Z,1022.36
2019-02-06T03:46:10.487Z,1022.39
2019-02-06T03:47:10.401Z,1022.37
2019-02-06T03:48:10.324Z,1022.33
2019-02-06T03:49:10.228Z,1022.36
2019-02-06T03:50:10.152Z,1022.36
2019-02-06T03:51:10.051Z,1022.39
2019-02-06T03:52:09.965Z,1022.41
2019-02-06T03:53:10.003Z,1022.41
2019-02-06T03:54:09.801Z,1022.42
2019-02-06T03:55:09.715Z,1022.44
2019-02-06T03:56:09.627Z,1022.45
2019-02-06T03:57:09.540Z,1022.44
2019-02-06T03:58:09.453Z,1022.42
2019-02-06T03:59:09.368Z,1022.43
2019-02-06T04:00:09.288Z,1022.41
2019-02-06T04:01:11.378Z,1022.37
2019-02-06T04:02:09.114Z,1022.37
2019-02-06T04:03:09.029Z,1022.40
2019-02-06T04:04:08.941Z,1022.37
2019-02-06T04:05:08.854Z,1022.38
2019-02-06T04:06:08.774Z,1022.36
2019-02-06T04:07:08.680Z,1022.34
2019-02-06T04:08:08.591Z,1022.38
2019-02-06T04:09:08.515Z,1022.37
2019-02-06T04:10:08.428Z,1022.39
2019-02-06T04:11:08.340Z,1022.41
2019-02-06T04:12:08.254Z,1022.38
2019-02-06T04:13:08.178Z,1022.38
2019-02-06T04:14:08.079Z,1022.36
2019-02-06T04:15:07.990Z,1022.31
2019-02-06T04:16:07.907Z,1022.34
2019-02-06T04:17:07.819Z,1022.36
2019-02-06T04:18:07.743Z,1022.30
2019-02-06T04:19:07.954Z,1022.33
2019-02-06T04:20:07.579Z,1022.29
2019-02-06T04:21:07.481Z,1022.29
2019-02-06T04:22:07.391Z,1022.26
2019-02-06T04:23:07.308Z,1022.24
2019-02-06T04:24:07.218Z,1022.24
2019-02-06T04:25:07.141Z,1022.19
2019-02-06T04:26:07.042Z,1022.22
2019-02-06T04:27:06.955Z,1022.24
2019-02-06T04:28:06.868Z,1022.23
2019-02-06T04:29:06.793Z,1022.26
2019-02-06T04:30:06.705Z,1022.31
2019-02-06T04:31:06.630Z,1022.32
2019-02-06T04:32:06.531Z,1022.29
2019-02-06T04:33:06.444Z,1022.34
2019-02-06T04:34:06.363Z,1022.31
2019-02-06T04:35:06.270Z,1022.35
2019-02-06T04:36:06.182Z,1022.29
2019-02-06T04:37:07.054Z,1022.32
2019-02-06T04:38:06.006Z,1022.32
2019-02-06T04:39:05.918Z,1022.24
2019-02-06T04:40:05.847Z,1022.30
2019-02-06T04:41:05.757Z,1022.29
2019-02-06T04:42:05.668Z,1022.25
2019-02-06T04:43:05.581Z,1022.24
2019-02-06T04:44:05.794Z,1022.24
2019-02-06T04:45:05.406Z,1022.24
2019-02-06T04:46:05.322Z,1022.26
2019-02-06T04:47:05.236Z,1022.20
2019-02-06T04:48:05.155Z,1022.24
2019-02-06T04:49:05.057Z,1022.25
2019-02-06T04:50:04.969Z,1022.22
2019-02-06T04:51:04.892Z,1022.21
2019-02-06T04:52:04.795Z,1022.18
2019-02-06T04:53:04.719Z,1022.19
2019-02-06T04:54:04.620Z,1022.15
2019-02-06T04:55:04.533Z,1022.15
2019-02-06T04:56:04.459Z,1022.11
2019-02-06T04:57:04.370Z,1022.14
2019-02-06T04:58:04.284Z,1022.08
2019-02-06T04:59:04.195Z,1022.10
2019-02-06T05:00:04.111Z,1022.08
2019-02-06T05:01:04.020Z,1022.10
2019-02-06T05:02:03.934Z,1022.09
2019-02-06T05:03:03.847Z,1022.10
2019-02-06T05:04:04.109Z,1022.14
2019-02-06T05:05:03.672Z,1022.10
2019-02-06T05:06:03.584Z,1022.06
2019-02-06T05:07:03.510Z,1022.06
2019-02-06T05:08:03.409Z,1022.02
2019-02-06T05:09:03.322Z,1022.03
2019-02-06T05:10:03.246Z,1022.01
2019-02-06T05:11:03.147Z,1022.00
2019-02-06T05:12:03.059Z,1021.92
2019-02-06T05:13:02.973Z,1021.93
2019-02-06T05:14:02.886Z,1021.95
2019-02-06T05:15:02.811Z,1021.93
2019-02-06T05:16:02.724Z,1021.94
2019-02-06T05:17:02.639Z,1021.94
2019-02-06T05:18:02.551Z,1021.96
2019-02-06T05:19:02.460Z,1022.01
2019-02-06T05:20:02.373Z,1022.01
2019-02-06T05:21:02.286Z,1022.07
2019-02-06T05:22:02.210Z,1022.07
2019-02-06T05:23:02.110Z,1022.08
2019-02-06T05:24:02.023Z,1022.05
2019-02-06T05:25:01.955Z,1022.08
2019-02-06T05:26:01.848Z,1022.04
2019-02-06T05:27:01.766Z,1022.07
2019-02-06T05:28:01.673Z,1022.00
2019-02-06T05:29:01.594Z,1022.05
2019-02-06T05:30:01.505Z,1022.07
2019-02-06T05:31:01.421Z,1022.11
2019-02-06T05:32:01.323Z,1022.08
2019-02-06T05:33:01.236Z,1022.09
2019-02-06T05:34:01.148Z,1022.11
2019-02-06T05:35:01.061Z,1022.11
2019-02-06T05:36:00.974Z,1022.07
2019-02-06T05:37:00.887Z,1022.09
2019-02-06T05:38:00.800Z,1022.08
2019-02-06T05:39:00.723Z,1022.06
2019-02-06T05:40:00.626Z,1022.06
2019-02-06T05:41:00.538Z,1022.06
2019-02-06T05:42:00.450Z,1022.07
2019-02-06T05:43:00.364Z,1022.06
2019-02-06T05:44:00.276Z,1022.09
2019-02-06T05:45:00.219Z,1022.06
2019-02-06T05:46:00.104Z,1022.08
2019-02-06T05:47:00.013Z,1022.07
2019-02-06T05:47:59.927Z,1022.04
2019-02-06T05:48:59.839Z,1022.05
2019-02-06T05:49:59.750Z,1022.04
2019-02-06T05:50:59.671Z,1022.04
2019-02-06T05:51:59.578Z,1022.06
2019-02-06T05:52:59.489Z,1022.02
2019-02-06T05:53:59.401Z,1022.05
2019-02-06T05:54:59.315Z,1022.06
2019-02-06T05:55:59.227Z,1022.03
2019-02-06T05:56:59.140Z,1022.03
2019-02-06T05:57:59.051Z,1021.94
2019-02-06T05:58:59.215Z,1021.93
2019-02-06T05:59:58.876Z,1021.93
2019-02-06T06:00:58.791Z,1021.90
2019-02-06T06:01:58.720Z,1021.91
2019-02-06T06:02:58.615Z,1021.87
2019-02-06T06:03:58.827Z,1021.86
2019-02-06T06:04:58.441Z,1021.91
2019-02-06T06:05:58.355Z,1021.90
2019-02-06T06:06:58.268Z,1021.89
2019-02-06T06:07:58.180Z,1021.95
2019-02-06T06:08:58.092Z,1021.95
2019-02-06T06:09:58.003Z,1021.97
2019-02-06T06:10:57.917Z,1021.94
2019-02-06T06:11:57.828Z,1021.96
2019-02-06T06:12:57.744Z,1021.97
2019-02-06T06:13:57.653Z,1021.97
2019-02-06T06:14:57.576Z,1021.98
2019-02-06T06:15:57.478Z,1021.98
2019-02-06T06:16:57.397Z,1021.97
2019-02-06T06:17:57.303Z,1022.02
2019-02-06T06:18:57.219Z,1022.06
2019-02-06T06:19:57.129Z,1022.03
2019-02-06T06:20:57.042Z,1022.00
2019-02-06T06:21:56.955Z,1021.94
2019-02-06T06:22:56.866Z,1021.93
2019-02-06T06:23:56.779Z,1021.94
2019-02-06T06:24:56.693Z,1021.91
2019-02-06T06:25:56.613Z,1021.95
2019-02-06T06:26:56.506Z,1021.91
2019-02-06T06:27:56.429Z,1021.95
2019-02-06T06:28:56.333Z,1021.93
2019-02-06T06:29:56.243Z,1021.92
2019-02-06T06:30:56.155Z,1021.93
2019-02-06T06:31:56.069Z,1021.93
2019-02-06T06:32:55.981Z,1021.98
2019-02-06T06:33:55.893Z,1022.00
2019-02-06T06:34:55.807Z,1022.01
2019-02-06T06:35:55.720Z,1021.95
2019-02-06T06:36:56.931Z,1021.97
2019-02-06T06:38:00.334Z,1021.93
2019-02-06T06:38:55.460Z,1021.95
2019-02-06T06:39:55.373Z,1021.94
2019-02-06T06:40:55.281Z,1021.92
2019-02-06T06:41:55.194Z,1021.90
2019-02-06T06:42:55.107Z,1021.90
2019-02-06T06:43:55.020Z,1021.87
2019-02-06T06:44:54.931Z,1021.89
2019-02-06T06:45:54.845Z,1021.82
2019-02-06T06:46:54.756Z,1021.86
2019-02-06T06:47:54.674Z,1021.84
2019-02-06T06:48:54.582Z,1021.82
2019-02-06T06:49:54.496Z,1021.83
2019-02-06T06:50:54.406Z,1021.82
2019-02-06T06:51:54.319Z,1021.79
2019-02-06T06:52:54.238Z,1021.78
2019-02-06T06:53:54.145Z,1021.76
2019-02-06T06:54:54.045Z,1021.69
2019-02-06T06:55:53.960Z,1021.70
2019-02-06T06:56:53.875Z,1021.72
2019-02-06T06:57:53.782Z,1021.69
2019-02-06T06:58:53.695Z,1021.73
2019-02-06T06:59:55.576Z,1021.66
2019-02-06T07:00:53.522Z,1021.69
2019-02-06T07:01:53.447Z,1021.73
2019-02-06T07:02:53.346Z,1021.73
2019-02-06T07:03:53.259Z,1021.71
2019-02-06T07:04:53.178Z,1021.72
2019-02-06T07:05:53.083Z,1021.75
2019-02-06T07:06:52.997Z,1021.71
2019-02-06T07:07:52.908Z,1021.73
2019-02-06T07:08:52.823Z,1021.75
2019-02-06T07:09:52.747Z,1021.79
2019-02-06T07:10:52.647Z,1021.74
2019-02-06T07:11:52.559Z,1021.75
2019-02-06T07:12:52.475Z,1021.76
2019-02-06T07:13:52.384Z,1021.74
2019-02-06T07:14:52.285Z,1021.72
2019-02-06T07:15:52.198Z,1021.66
2019-02-06T07:16:52.110Z,1021.69
2019-02-06T07:17:52.022Z,1021.69
2019-02-06T07:18:51.934Z,1021.70
2019-02-06T07:19:51.849Z,1021.69
2019-02-06T07:20:51.772Z,1021.64
2019-02-06T07:21:51.672Z,1021.64
2019-02-06T07:22:51.584Z,1021.63
2019-02-06T07:23:51.498Z,1021.67
2019-02-06T07:24:51.432Z,1021.61
2019-02-06T07:25:51.323Z,1021.57
2019-02-06T07:26:51.237Z,1021.52
2019-02-06T07:27:51.150Z,1021.52
2019-02-06T07:28:51.061Z,1021.48
2019-02-06T07:29:50.975Z,1021.44
2019-02-06T07:30:50.886Z,1021.45
2019-02-06T07:31:50.799Z,1021.41
2019-02-06T07:32:50.711Z,1021.41
2019-02-06T07:33:50.625Z,1021.43
2019-02-06T07:34:50.537Z,1021.39
2019-02-06T07:35:50.457Z,1021.43
2019-02-06T07:36:50.361Z,1021.40
2019-02-06T07:37:50.275Z,1021.39
2019-02-06T07:38:50.187Z,1021.43
2019-02-06T07:39:50.100Z,1021.44
2019-02-06T07:40:50.012Z,1021.44
2019-02-06T07:41:49.925Z,1021.50
2019-02-06T07:42:49.837Z,1021.52
2019-02-06T07:43:49.752Z,1021.53
2019-02-06T07:44:49.663Z,1021.53
2019-02-06T07:45:49.564Z,1021.57
2019-02-06T07:46:49.476Z,1021.55
2019-02-06T07:47:49.391Z,1021.55
2019-02-06T07:48:49.312Z,1021.54
2019-02-06T07:49:49.213Z,1021.56
2019-02-06T07:50:49.127Z,1021.56
2019-02-06T07:51:50.491Z,1021.63
2019-02-06T07:52:48.952Z,1021.61
2019-02-06T07:53:48.864Z,1021.58
2019-02-06T07:54:48.776Z,1021.60
2019-02-06T07:55:48.688Z,1021.56
2019-02-06T07:56:48.614Z,1021.61
2019-02-06T07:57:48.513Z,1021.64
2019-02-06T07:58:50.681Z,1021.67
2019-02-06T07:59:48.351Z,1021.69
2019-02-06T08:00:48.338Z,1021.64
2019-02-06T08:01:48.164Z,1021.62
2019-02-06T08:02:48.077Z,1021.68
2019-02-06T08:03:47.989Z,1021.65
2019-02-06T08:04:47.904Z,1021.68
2019-02-06T08:05:47.815Z,1021.70
2019-02-06T08:06:47.734Z,1021.70
2019-02-06T08:07:47.648Z,1021.73
2019-02-06T08:08:47.553Z,1021.74
2019-02-06T08:09:47.466Z,1021.71
2019-02-06T08:10:47.378Z,1021.69
2019-02-06T08:11:47.304Z,1021.72
2019-02-06T08:12:47.203Z,1021.72
2019-02-06T08:13:47.115Z,1021.74
2019-02-06T08:14:47.029Z,1021.71
2019-02-06T08:15:46.942Z,1021.72
2019-02-06T08:16:46.854Z,1021.74
2019-02-06T08:17:46.765Z,1021.70
2019-02-06T08:18:46.930Z,1021.64
2019-02-06T08:19:46.590Z,1021.64
2019-02-06T08:20:46.504Z,1021.66
2019-02-06T08:21:46.417Z,1021.66
2019-02-06T08:22:46.328Z,1021.69
2019-02-06T08:23:46.241Z,1021.62
2019-02-06T08:24:46.156Z,1021.61
2019-02-06T08:25:46.066Z,1021.60
2019-02-06T08:26:45.984Z,1021.59
2019-02-06T08:27:45.892Z,1021.63
2019-02-06T08:28:45.804Z,1021.53
2019-02-06T08:29:45.717Z,1021.50
2019-02-06T08:30:45.631Z,1021.53
2019-02-06T08:31:45.545Z,1021.48
2019-02-06T08:32:45.455Z,1021.45
2019-02-06T08:33:45.370Z,1021.49
2019-02-06T08:34:45.280Z,1021.47
2019-02-06T08:35:45.205Z,1021.46
2019-02-06T08:36:45.106Z,1021.48
2019-02-06T08:37:45.017Z,1021.42
2019-02-06T08:38:48.243Z,1021.49
2019-02-06T08:39:44.843Z,1021.46
2019-02-06T08:40:44.756Z,1021.44
2019-02-06T08:41:44.668Z,1021.48
2019-02-06T08:42:44.581Z,1021.50
2019-02-06T08:43:44.493Z,1021.48
2019-02-06T08:44:44.409Z,1021.46
2019-02-06T08:45:44.320Z,1021.46
2019-02-06T08:46:44.233Z,1021.47
2019-02-06T08:47:44.145Z,1021.42
2019-02-06T08:48:44.071Z,1021.39
2019-02-06T08:49:43.972Z,1021.40
2019-02-06T08:50:43.894Z,1021.37
2019-02-06T08:51:43.809Z,1021.29
2019-02-06T08:52:43.719Z,1021.29
2019-02-06T08:53:43.633Z,1021.28
2019-02-06T08:54:43.544Z,1021.25
2019-02-06T08:55:43.457Z,1021.24
2019-02-06T08:56:43.370Z,1021.23
2019-02-06T08:57:43.285Z,1021.19
2019-02-06T08:58:43.195Z,1021.16
2019-02-06T08:59:43.110Z,1021.18
2019-02-06T09:00:43.022Z,1021.17
2019-02-06T09:01:42.934Z,1021.11
2019-02-06T09:02:42.845Z,1021.12
2019-02-06T09:03:42.759Z,1021.05
2019-02-06T09:04:42.670Z,1021.10
2019-02-06T09:05:42.583Z,1021.06
2019-02-06T09:06:42.495Z,1021.02
2019-02-06T09:07:42.533Z,1021.05
2019-02-06T09:08:42.321Z,1021.08
2019-02-06T09:09:43.597Z,1021.09
2019-02-06T09:10:42.148Z,1021.14
2019-02-06T09:11:42.084Z,1021.17
2019-02-06T09:12:41.990Z,1021.17
2019-02-06T09:13:41.897Z,1021.23
2019-02-06T09:14:41.816Z,1021.30
2019-02-06T09:15:41.722Z,1021.25
2019-02-06T09:16:41.635Z,1021.27
2019-02-06T09:17:41.547Z,1021.21
2019-02-06T09:18:41.461Z,1021.24
2019-02-06T09:19:41.384Z,1021.18
2019-02-06T09:20:41.299Z,1021.19
2019-02-06T09:21:41.212Z,1021.17
2019-02-06T09:22:41.123Z,1021.24
2019-02-06T09:23:41.036Z,1021.21
2019-02-06T09:24:41.003Z,1021.25
2019-02-06T09:25:40.861Z,1021.20
2019-02-06T09:26:40.774Z,1021.23
2019-02-06T09:27:40.698Z,1021.17
2019-02-06T09:28:40.612Z,1021.18
2019-02-06T09:29:40.523Z,1021.14
2019-02-06T09:30:40.437Z,1021.11
2019-02-06T09:31:40.349Z,1021.14
2019-02-06T09:32:40.262Z,1021.13
2019-02-06T09:33:40.187Z,1021.16
2019-02-06T09:34:40.099Z,1021.13
2019-02-06T09:35:40.013Z,1021.17
2019-02-06T09:36:39.924Z,1021.12
2019-02-06T09:37:39.838Z,1021.10
2019-02-06T09:38:39.754Z,1021.08
2019-02-06T09:39:39.663Z,1021.10
2019-02-06T09:40:39.587Z,1021.10
2019-02-06T09:41:39.500Z,1021.10
2019-02-06T09:42:39.413Z,1021.08
2019-02-06T09:43:39.325Z,1021.04
2019-02-06T09:44:39.238Z,1021.03
2019-02-06T09:45:39.157Z,1021.04
2019-02-06T09:46:39.076Z,1021.03
2019-02-06T09:47:38.990Z,1021.07
2019-02-06T09:48:38.901Z,1021.11
2019-02-06T09:49:41.487Z,1021.08
2019-02-06T09:50:38.728Z,1021.05
2019-02-06T09:51:38.638Z,1021.08
2019-02-06T09:52:38.552Z,1021.08
2019-02-06T09:53:38.476Z,1021.10
2019-02-06T09:54:38.389Z,1021.10
2019-02-06T09:55:38.301Z,1021.14
2019-02-06T09:56:38.215Z,1021.14
2019-02-06T09:57:38.126Z,1021.13
2019-02-06T09:58:38.051Z,1021.15
2019-02-06T09:59:37.965Z,1021.10
2019-02-06T10:00:37.916Z,1021.09
2019-02-06T10:01:37.791Z,1021.09
2019-02-06T10:02:37.703Z,1021.12
2019-02-06T10:03:37.615Z,1021.08
2019-02-06T10:04:37.539Z,1021.07
2019-02-06T10:05:37.451Z,1021.02
2019-02-06T10:06:37.365Z,1020.98
2019-02-06T10:07:37.280Z,1020.95
2019-02-06T10:08:37.190Z,1020.98
2019-02-06T10:09:37.116Z,1020.96
2019-02-06T10:10:37.028Z,1020.99
2019-02-06T10:11:36.940Z,1020.95
2019-02-06T10:12:36.855Z,1020.96
2019-02-06T10:13:36.778Z,1021.01
2019-02-06T10:14:36.679Z,1021.00
2019-02-06T10:15:36.616Z,1020.94
2019-02-06T10:16:36.516Z,1020.91
2019-02-06T10:17:36.430Z,1020.90
2019-02-06T10:18:36.342Z,1020.89
2019-02-06T10:19:36.255Z,1020.86
2019-02-06T10:20:36.185Z,1020.83
2019-02-06T10:21:36.092Z,1020.80
2019-02-06T10:22:36.017Z,1020.80
2019-02-06T10:23:35.919Z,1020.75
2019-02-06T10:24:35.846Z,1020.72
2019-02-06T10:25:35.754Z,1020.64
2019-02-06T10:26:35.668Z,1020.62
2019-02-06T10:27:35.672Z,1020.60
2019-02-06T10:28:35.493Z,1020.54
2019-02-06T10:29:35.418Z,1020.54
2019-02-06T10:30:35.330Z,1020.49
2019-02-06T10:31:35.244Z,1020.51
2019-02-06T10:32:35.156Z,1020.46
2019-02-06T10:33:35.079Z,1020.44
2019-02-06T10:34:34.995Z,1020.49
2019-02-06T10:35:34.919Z,1020.50
2019-02-06T10:36:34.818Z,1020.50
2019-02-06T10:37:34.731Z,1020.52
2019-02-06T10:38:34.644Z,1020.52
2019-02-06T10:39:34.898Z,1020.45
2019-02-06T10:40:34.484Z,1020.39
2019-02-06T10:41:34.395Z,1020.40
2019-02-06T10:42:34.306Z,1020.34
2019-02-06T10:43:35.926Z,1020.29
2019-02-06T10:44:34.146Z,1020.34
2019-02-06T10:45:34.057Z,1020.31
2019-02-06T10:46:33.969Z,1020.29
2019-02-06T10:47:33.881Z,1020.34
2019-02-06T10:48:33.801Z,1020.35
2019-02-06T10:49:33.720Z,1020.35
2019-02-06T10:50:33.634Z,1020.29
2019-02-06T10:51:33.545Z,1020.28
2019-02-06T10:52:33.471Z,1020.22
2019-02-06T10:53:33.385Z,1020.23
2019-02-06T10:54:33.304Z,1020.22
2019-02-06T10:55:33.207Z,1020.15
2019-02-06T10:56:33.120Z,1020.18
2019-02-06T10:57:33.033Z,1020.17
2019-02-06T10:58:33.208Z,1020.12
2019-02-06T10:59:32.871Z,1020.08
2019-02-06T11:00:32.783Z,1020.09
2019-02-06T11:01:32.696Z,1020.01
2019-02-06T11:02:34.579Z,1020.00
2019-02-06T11:03:32.537Z,1020.00
2019-02-06T11:04:32.446Z,1020.05
2019-02-06T11:05:32.359Z,1020.00
2019-02-06T11:06:32.283Z,1020.02
2019-02-06T11:07:32.197Z,1020.05
2019-02-06T11:08:32.108Z,1020.01
2019-02-06T11:09:32.022Z,1020.03
2019-02-06T11:10:31.949Z,1020.01
2019-02-06T11:11:31.859Z,1019.98
2019-02-06T11:12:31.773Z,1019.95
2019-02-06T11:13:31.686Z,1019.94
2019-02-06T11:14:31.610Z,1019.91
2019-02-06T11:15:31.526Z,1019.81
2019-02-06T11:16:31.435Z,1019.80
2019-02-06T11:17:31.360Z,1019.82
2019-02-06T11:18:31.278Z,1019.92
2019-02-06T11:19:31.185Z,1019.86
2019-02-06T11:20:31.099Z,1019.87
2019-02-06T11:21:31.023Z,1019.89
2019-02-06T11:22:30.948Z,1019.89
2019-02-06T11:23:30.909Z,1019.87
2019-02-06T11:24:30.779Z,1019.98
2019-02-06T11:25:30.685Z,1019.94
2019-02-06T11:26:30.599Z,1019.93
2019-02-06T11:27:30.513Z,1020.01
2019-02-06T11:28:30.449Z,1020.01
2019-02-06T11:29:30.350Z,1020.05
2019-02-06T11:30:30.262Z,1019.93
2019-02-06T11:31:30.255Z,1019.91
2019-02-06T11:32:30.099Z,1019.93
2019-02-06T11:33:30.011Z,1019.88
2019-02-06T11:34:29.937Z,1019.84
2019-02-06T11:35:29.850Z,1019.87
2019-02-06T11:36:29.762Z,1019.85
2019-02-06T11:37:29.690Z,1019.79
2019-02-06T11:38:29.601Z,1019.79
2019-02-06T11:39:29.513Z,1019.82
2019-02-06T11:40:29.437Z,1019.78
2019-02-06T11:41:29.361Z,1019.82
2019-02-06T11:42:29.276Z,1019.76
2019-02-06T11:43:32.027Z,1019.74
2019-02-06T11:44:29.106Z,1019.79
2019-02-06T11:45:29.012Z,1019.71
2019-02-06T11:46:28.938Z,1019.71
2019-02-06T11:47:28.851Z,1019.66
2019-02-06T11:48:28.765Z,1019.63
2019-02-06T11:49:28.688Z,1019.65
2019-02-06T11:50:28.602Z,1019.66
2019-02-06T11:51:28.517Z,1019.63
2019-02-06T11:52:28.439Z,1019.59
2019-02-06T11:53:28.352Z,1019.58
2019-02-06T11:54:28.276Z,1019.52
2019-02-06T11:55:28.188Z,1019.51
2019-02-06T11:56:28.104Z,1019.50
2019-02-06T11:57:28.030Z,1019.47
2019-02-06T11:58:27.940Z,1019.46
2019-02-06T11:59:27.859Z,1019.41
2019-02-06T12:00:27.780Z,1019.35
2019-02-06T12:01:27.689Z,1019.44
2019-02-06T12:02:37.094Z,1019.34
2019-02-06T12:03:27.528Z,1019.33
2019-02-06T12:04:27.439Z,1019.28